Time;durP1;ratioP1;P1;durP2;ratioP2;P2;SDS_P1;SDS_P2;PMS_P1;PMS_P2;Temp;Humidity;BMP_temperature;BMP_pressure;BME280_temperature;BME280_humidity;BME280_pressure;Samples;Min_cycle;Max_cycle;Signal;HPM_P1;HPM_P2
2023/01/06 00:02:40;;;;;;;14.02;5.13;;;;;;;7.66;100.00;101019.50;6187706;28;20049;-92
2023/01/06 00:05:42;;;;;;;16.10;5.22;;;;;;;7.66;100.00;101019.50;6188371;28;20523;-92
2023/01/06 00:08:43;;;;;;;12.50;4.93;;;;;;;7.67;100.00;101023.72;6187561;28;20429;-92
2023/01/06 00:11:48;;;;;;;14.32;5.68;;;;;;;7.69;100.00;101019.31;6188225;28;20050;-91
2023/01/06 00:14:50;;;;;;;20.63;5.22;;;;;;;7.71;100.00;101019.22;6187431;28;20038;-91
2023/01/06 00:17:52;;;;;;;14.18;4.85;;;;;;;7.73;100.00;101020.78;6188758;28;20046;-91
2023/01/06 00:20:57;;;;;;;14.25;6.63;;;;;;;7.76;100.00;101014.63;6187302;28;20054;-91
2023/01/06 00:23:59;;;;;;;17.25;5.40;;;;;;;7.74;100.00;101012.13;6187442;28;20344;-91
2023/01/06 00:27:01;;;;;;;20.55;6.10;;;;;;;7.78;100.00;101010.22;6188287;28;20444;-92
2023/01/06 00:30:04;;;;;;;17.00;5.38;;;;;;;7.80;100.00;101010.09;6172980;28;20054;-92
2023/01/06 00:33:06;;;;;;;13.80;5.90;;;;;;;7.76;100.00;101012.06;6170298;28;20085;-92
2023/01/06 00:36:09;;;;;;;16.00;5.68;;;;;;;7.76;100.00;101004.31;6156017;28;20042;-92
2023/01/06 00:39:12;;;;;;;10.73;5.10;;;;;;;7.74;100.00;101001.00;6174684;28;20038;-92
2023/01/06 00:42:14;;;;;;;16.33;5.38;;;;;;;7.75;100.00;101002.66;6169914;28;20042;-92
2023/01/06 00:45:17;;;;;;;14.68;5.85;;;;;;;7.77;100.00;100995.66;6159843;28;20379;-92
2023/01/06 00:48:21;;;;;;;11.85;5.75;;;;;;;7.77;100.00;100998.22;6186864;28;20543;-92
2023/01/06 00:51:22;;;;;;;16.30;5.95;;;;;;;7.78;100.00;100999.91;6186303;28;20510;-92
2023/01/06 00:54:24;;;;;;;18.35;5.53;;;;;;;7.82;100.00;100996.22;6187044;28;20424;-92
2023/01/06 00:57:27;;;;;;;17.33;6.05;;;;;;;7.82;100.00;101001.38;6186091;28;20038;-92
2023/01/06 01:00:29;;;;;;;17.30;5.55;;;;;;;7.84;100.00;100993.56;6158656;28;20500;-92
2023/01/06 01:03:35;;;;;;;13.40;5.10;;;;;;;7.84;100.00;100998.72;6177588;28;20046;-92
2023/01/06 01:06:37;;;;;;;10.82;4.65;;;;;;;7.84;100.00;100999.53;6169883;28;20053;-92
2023/01/06 01:09:39;;;;;;;10.20;4.20;;;;;;;7.82;100.00;100998.78;6187234;28;20055;-92
2023/01/06 01:12:40;;;;;;;11.30;4.07;;;;;;;7.86;100.00;101005.44;6170086;28;20415;-92
2023/01/06 01:15:43;;;;;;;8.65;3.78;;;;;;;7.90;100.00;100998.31;6165535;28;20041;-92
2023/01/06 01:18:45;;;;;;;11.30;4.28;;;;;;;7.93;100.00;101004.13;6165132;28;20437;-92
2023/01/06 01:21:47;;;;;;;10.35;4.22;;;;;;;7.94;100.00;100992.91;6183021;28;20038;-92
2023/01/06 01:24:51;;;;;;;8.50;3.88;;;;;;;7.99;100.00;100996.03;6184122;28;20049;-92
2023/01/06 01:27:53;;;;;;;7.22;3.50;;;;;;;7.99;100.00;100984.88;6176034;28;20580;-92
2023/01/06 01:30:59;;;;;;;7.68;4.07;;;;;;;7.98;100.00;100984.06;6168352;28;20046;-92
2023/01/06 01:34:01;;;;;;;6.45;4.22;;;;;;;8.01;100.00;100984.81;6167527;28;20045;-91
2023/01/06 01:37:03;;;;;;;7.90;4.20;;;;;;;7.97;100.00;100974.69;6168243;28;20065;-91
2023/01/06 01:40:05;;;;;;;8.27;4.50;;;;;;;8.00;100.00;100976.25;6145732;28;20078;-91
2023/01/06 01:43:10;;;;;;;11.18;4.53;;;;;;;8.05;100.00;100970.78;6186763;28;20057;-91
2023/01/06 01:46:17;;;;;;;9.05;4.95;;;;;;;8.01;100.00;100980.47;6176383;28;20050;-91
2023/01/06 01:49:25;;;;;;;9.45;4.63;;;;;;;8.01;100.00;100971.91;6182232;28;20053;-91
2023/01/06 01:52:28;;;;;;;10.43;5.28;;;;;;;7.96;100.00;100970.44;6163429;28;20453;-91
2023/01/06 01:55:31;;;;;;;9.70;4.60;;;;;;;7.91;100.00;100964.72;6164293;28;20054;-91
2023/01/06 01:58:37;;;;;;;8.23;4.65;;;;;;;7.85;100.00;100959.97;6179406;28;20466;-91
2023/01/06 02:01:39;;;;;;;12.60;4.35;;;;;;;7.83;100.00;100948.91;6186658;28;20385;-91
2023/01/06 02:04:46;;;;;;;6.63;3.63;;;;;;;7.82;100.00;100956.72;6166481;28;20224;-91
2023/01/06 02:07:50;;;;;;;6.60;4.28;;;;;;;7.83;100.00;100948.09;6168831;28;20429;-91
2023/01/06 02:10:52;;;;;;;6.18;3.92;;;;;;;7.82;100.00;100938.69;6186026;28;20502;-92
2023/01/06 02:14:08;;;;;;;11.90;4.63;;;;;;;7.84;100.00;100945.41;6184472;28;20035;-91
2023/01/06 02:17:19;;;;;;;8.55;3.70;;;;;;;7.85;100.00;100935.91;6147344;28;20053;-91
2023/01/06 02:20:45;;;;;;;9.77;4.28;;;;;;;7.87;100.00;100952.13;6179181;28;20497;-91
2023/01/06 02:24:25;;;;;;;7.22;3.75;;;;;;;7.88;100.00;100939.16;6177052;28;20129;-91
2023/01/06 02:27:46;;;;;;;6.72;4.13;;;;;;;7.87;100.00;100944.38;6175021;28;20053;-91
2023/01/06 02:31:25;;;;;;;6.78;3.60;;;;;;;7.87;100.00;100944.38;6163462;28;20042;-90
2023/01/06 02:34:50;;;;;;;8.07;3.50;;;;;;;7.88;100.00;100944.31;6164662;28;20137;-91
2023/01/06 02:38:08;;;;;;;6.05;3.30;;;;;;;7.89;100.00;100942.56;6154831;28;20043;-91
2023/01/06 02:41:16;;;;;;;5.22;3.35;;;;;;;7.89;100.00;100938.22;6156879;28;20456;-91
2023/01/06 02:44:32;;;;;;;4.85;3.42;;;;;;;7.91;100.00;100933.81;6172806;28;20043;-91
2023/01/06 02:47:52;;;;;;;6.35;3.20;;;;;;;7.93;100.00;100926.81;6161667;28;20074;-91
2023/01/06 02:51:23;;;;;;;9.50;3.55;;;;;;;7.96;100.00;100918.06;6172776;28;20042;-91
2023/01/06 02:55:01;;;;;;;7.60;3.10;;;;;;;7.99;100.00;100910.94;6067739;29;20044;-91
2023/01/06 02:58:28;;;;;;;6.80;3.00;;;;;;;7.99;100.00;100910.13;6067734;29;20475;-91
2023/01/06 03:01:42;;;;;;;7.50;3.80;;;;;;;8.01;100.00;100905.72;6066424;29;20049;-91
2023/01/06 03:04:47;;;;;;;7.65;3.45;;;;;;;8.04;100.00;100904.69;6068349;29;20045;-91
2023/01/06 03:07:52;;;;;;;7.85;3.60;;;;;;;8.04;100.00;100890.03;6051314;29;20396;-91
2023/01/06 03:10:56;;;;;;;6.28;3.20;;;;;;;8.03;100.00;100896.13;6071208;29;20148;-91
2023/01/06 03:14:07;;;;;;;6.00;2.90;;;;;;;8.03;100.00;100885.00;6054771;29;20052;-91
2023/01/06 03:17:10;;;;;;;8.55;3.03;;;;;;;8.05;100.00;100886.56;6067106;29;20060;-91
2023/01/06 03:20:13;;;;;;;5.13;3.08;;;;;;;8.08;100.00;100880.38;6065500;29;20115;-91
2023/01/06 03:23:16;;;;;;;5.20;2.75;;;;;;;8.09;100.00;100882.03;6043903;29;20155;-91
2023/01/06 03:26:18;;;;;;;6.75;3.10;;;;;;;8.10;100.00;100876.78;6154503;28;20390;-91
2023/01/06 03:29:22;;;;;;;5.53;3.05;;;;;;;8.10;100.00;100881.09;6165771;28;20401;-91
2023/01/06 03:32:42;;;;;;;5.28;3.03;;;;;;;8.10;100.00;100879.38;6168519;28;20145;-90
2023/01/06 03:36:03;;;;;;;8.00;3.33;;;;;;;8.14;100.00;100873.06;6171404;28;20053;-91
2023/01/06 03:39:17;;;;;;;4.68;2.90;;;;;;;8.12;100.00;100872.38;6185274;28;20517;-91
2023/01/06 03:46:20;;;;;;;7.40;3.22;;;;;;;8.11;100.00;100870.69;6170645;28;20379;-90
2023/01/06 03:49:33;;;;;;;5.30;2.70;;;;;;;8.12;100.00;100863.78;6136224;28;20043;-90
2023/01/06 03:52:47;;;;;;;3.78;2.80;;;;;;;8.12;100.00;100863.78;6180046;28;20042;-90
2023/01/06 03:55:57;;;;;;;4.32;3.13;;;;;;;8.11;100.00;100857.81;6151066;28;20058;-90
2023/01/06 03:59:04;;;;;;;7.95;2.92;;;;;;;8.15;100.00;100863.63;6155751;28;20773;-90
2023/01/06 04:02:07;;;;;;;6.43;3.60;;;;;;;8.14;100.00;100856.78;6153948;28;20416;-90
2023/01/06 04:05:12;;;;;;;5.53;3.42;;;;;;;8.14;100.00;100847.28;6167922;28;20474;-90
2023/01/06 04:08:16;;;;;;;6.82;3.30;;;;;;;8.15;100.00;100848.97;6165857;28;20057;-90
2023/01/06 04:14:39;;;;;;;5.78;3.17;;;;;;;8.14;100.00;100833.56;6191667;28;20165;-90
2023/01/06 04:17:42;;;;;;;5.97;3.45;;;;;;;8.13;100.00;100835.34;6160426;28;20054;-90
2023/01/06 04:20:49;;;;;;;5.80;3.20;;;;;;;8.12;100.00;100822.53;6185080;28;20047;-90
2023/01/06 04:24:00;;;;;;;6.93;3.45;;;;;;;8.11;100.00;100813.97;6177094;28;20069;-90
2023/01/06 04:27:02;;;;;;;6.57;3.58;;;;;;;8.12;100.00;100825.09;6171746;28;20050;-90
2023/01/06 04:30:04;;;;;;;6.78;3.42;;;;;;;8.12;100.00;100822.53;6170691;28;20074;-90
2023/01/06 04:33:07;;;;;;;5.03;2.95;;;;;;;8.15;100.00;100815.44;6170956;28;20077;-91
2023/01/06 04:36:10;;;;;;;5.72;2.90;;;;;;;8.16;100.00;100817.06;6170975;28;20054;-90
2023/01/06 04:39:16;;;;;;;3.70;2.92;;;;;;;8.27;100.00;100805.25;6177396;28;20056;-90
2023/01/06 04:42:18;;;;;;;6.43;3.13;;;;;;;8.31;100.00;100797.22;6188737;28;20435;-90
2023/01/06 04:45:21;;;;;;;4.07;2.67;;;;;;;8.30;100.00;100787.84;6188307;28;20078;-90
2023/01/06 04:48:23;;;;;;;5.32;3.03;;;;;;;8.36;100.00;100789.19;6180744;28;20046;-89
2023/01/06 04:51:25;;;;;;;4.32;3.15;;;;;;;8.40;100.00;100780.34;6166278;28;20058;-89
2023/01/06 04:54:27;;;;;;;5.63;2.30;;;;;;;8.41;100.00;100772.50;6171182;28;20042;-90
2023/01/06 04:57:29;;;;;;;6.95;3.17;;;;;;;8.33;100.00;100768.75;6176396;28;20038;-89
2023/01/06 05:00:30;;;;;;;5.50;2.20;;;;;;;8.40;100.00;100773.44;6153972;28;20185;-90
2023/01/06 05:03:34;;;;;;;5.97;2.55;;;;;;;8.43;100.00;100763.84;6188823;28;20074;-89
2023/01/06 05:06:36;;;;;;;7.28;2.60;;;;;;;8.34;100.00;100757.50;6157466;28;20120;-89
2023/01/06 05:09:38;;;;;;;3.30;2.08;;;;;;;8.35;100.00;100778.03;6189338;28;20788;-89
2023/01/06 05:12:40;;;;;;;3.25;1.98;;;;;;;8.48;100.00;100769.53;6169929;28;20226;-89
2023/01/06 05:15:42;;;;;;;3.33;2.03;;;;;;;8.49;100.00;100756.50;6187844;28;20046;-89
2023/01/06 05:18:43;;;;;;;5.18;2.15;;;;;;;8.53;100.00;100767.47;6181384;28;20085;-89
2023/01/06 05:21:45;;;;;;;4.25;1.75;;;;;;;8.67;100.00;100744.16;6196005;28;20503;-89
2023/01/06 05:24:47;;;;;;;1.95;1.80;;;;;;;8.62;100.00;100733.28;6153559;28;20487;-89
2023/01/06 05:27:48;;;;;;;3.05;1.98;;;;;;;8.54;100.00;100736.38;6165683;28;20183;-89
2023/01/06 05:30:50;;;;;;;3.40;1.75;;;;;;;8.52;100.00;100740.84;6151093;28;20034;-89
2023/01/06 05:33:52;;;;;;;3.85;1.50;;;;;;;8.57;100.00;100758.56;6175704;28;20405;-89
2023/01/06 05:36:55;;;;;;;5.97;1.48;;;;;;;8.55;100.00;100748.38;6174112;28;20185;-89
2023/01/06 05:39:57;;;;;;;2.90;1.50;;;;;;;8.54;100.00;100745.88;6181387;28;20468;-89
2023/01/06 05:43:01;;;;;;;3.10;1.30;;;;;;;8.58;100.00;100749.94;6174349;28;20042;-89
2023/01/06 05:46:08;;;;;;;2.53;1.10;;;;;;;8.67;100.00;100749.31;6181176;28;20038;-89
2023/01/06 05:49:11;;;;;;;1.88;1.10;;;;;;;8.72;100.00;100731.75;6184709;28;20073;-89
2023/01/06 05:52:13;;;;;;;1.38;1.00;;;;;;;8.79;100.00;100725.25;6175795;28;20146;-89
2023/01/06 05:55:15;;;;;;;1.65;1.33;;;;;;;8.75;100.00;100716.06;6167641;28;20186;-89
2023/01/06 05:58:17;;;;;;;3.88;1.30;;;;;;;8.66;100.00;100724.41;6167355;28;20481;-89
2023/01/06 06:01:22;;;;;;;1.35;0.93;;;;;;;8.61;100.00;100724.72;6173476;28;20042;-89
2023/01/06 06:04:24;;;;;;;1.85;1.00;;;;;;;8.57;100.00;100715.56;6167371;28;20048;-89
2023/01/06 06:07:25;;;;;;;2.78;1.00;;;;;;;8.49;100.00;100696.34;6172603;28;20046;-89
2023/01/06 06:10:27;;;;;;;2.50;0.90;;;;;;;8.41;100.00;100687.38;6176419;28;20505;-89
2023/01/06 06:13:29;;;;;;;2.05;1.00;;;;;;;8.41;100.00;100695.13;6176344;28;20050;-89
2023/01/06 06:16:31;;;;;;;3.53;1.00;;;;;;;8.48;100.00;100676.66;6174805;28;20054;-89
2023/01/06 06:19:33;;;;;;;0.73;0.73;;;;;;;8.37;100.00;100664.44;6178623;28;20038;-89
2023/01/06 06:22:34;;;;;;;2.58;0.90;;;;;;;8.46;100.00;100652.72;6186161;28;20054;-89
2023/01/06 06:25:36;;;;;;;2.28;0.90;;;;;;;8.43;100.00;100650.34;6174193;28;20124;-89
2023/01/06 06:28:39;;;;;;;3.10;0.85;;;;;;;8.46;100.00;100661.28;6181048;28;20046;-89
2023/01/06 06:31:40;;;;;;;0.80;0.75;;;;;;;8.54;100.00;100653.81;6180673;28;20056;-89
2023/01/06 06:34:42;;;;;;;1.33;0.90;;;;;;;8.51;100.00;100658.38;6183077;28;20042;-89
2023/01/06 06:37:45;;;;;;;0.85;0.85;;;;;;;8.47;100.00;100652.63;6166685;28;20197;-89
2023/01/06 06:40:48;;;;;;;1.38;0.75;;;;;;;8.49;100.00;100655.06;6184016;28;20046;-89
2023/01/06 06:43:50;;;;;;;1.92;1.00;;;;;;;8.46;100.00;100663.84;6185217;28;20086;-89
2023/01/06 06:46:52;;;;;;;4.22;1.33;;;;;;;8.45;100.00;100661.38;6186655;28;20113;-89
2023/01/06 06:49:54;;;;;;;2.03;0.88;;;;;;;8.40;100.00;100653.97;6184351;28;20050;-89
2023/01/06 06:52:56;;;;;;;2.72;0.93;;;;;;;8.37;100.00;100652.38;6184140;28;20038;-89
2023/01/06 06:55:58;;;;;;;1.42;0.70;;;;;;;8.38;100.00;100659.19;6166513;28;20050;-89
2023/01/06 06:59:00;;;;;;;1.65;0.80;;;;;;;8.46;100.00;100657.88;6185031;28;20270;-89
2023/01/06 07:02:01;;;;;;;1.98;0.90;;;;;;;8.50;100.00;100664.50;6178012;28;20046;-89
2023/01/06 07:05:04;;;;;;;1.92;0.80;;;;;;;8.54;100.00;100646.09;6177646;28;20038;-89
2023/01/06 07:08:07;;;;;;;3.60;1.15;;;;;;;8.56;100.00;100644.22;6182049;28;20034;-89
2023/01/06 07:11:09;;;;;;;5.30;1.10;;;;;;;8.50;100.00;100638.69;6186006;28;20054;-89
2023/01/06 07:14:10;;;;;;;4.10;1.20;;;;;;;8.45;100.00;100630.41;6183881;28;20042;-89
2023/01/06 07:17:12;;;;;;;2.60;0.90;;;;;;;8.47;100.00;100633.72;6186114;28;20054;-90
2023/01/06 07:20:14;;;;;;;3.80;1.15;;;;;;;8.53;100.00;100623.00;6186678;28;20512;-89
2023/01/06 07:23:16;;;;;;;2.92;1.20;;;;;;;8.51;100.00;100635.97;6186721;28;20480;-89
2023/01/06 07:26:18;;;;;;;2.88;1.20;;;;;;;8.54;100.00;100637.53;6181235;28;20073;-89
2023/01/06 07:29:19;;;;;;;2.88;1.02;;;;;;;8.51;100.00;100641.16;6185510;28;20050;-89
2023/01/06 07:32:21;;;;;;;3.35;1.20;;;;;;;8.53;100.00;100638.47;6188734;28;20073;-89
2023/01/06 07:35:23;;;;;;;2.55;1.00;;;;;;;8.57;100.00;100622.69;6190715;28;20129;-89
2023/01/06 07:38:25;;;;;;;2.22;1.67;;;;;;;8.60;100.00;100621.66;6190629;28;20418;-89
2023/01/06 07:41:27;;;;;;;3.92;1.17;;;;;;;8.59;100.00;100620.78;6173386;28;20481;-88
2023/01/06 07:44:33;;;;;;;2.17;1.02;;;;;;;8.56;100.00;100628.75;6190505;28;20099;-88
2023/01/06 07:47:35;;;;;;;1.00;0.90;;;;;;;8.62;100.00;100614.59;6189519;28;20050;-88
2023/01/06 07:50:36;;;;;;;2.45;1.20;;;;;;;8.62;100.00;100630.06;6188191;28;20455;-89
2023/01/06 07:53:38;;;;;;;1.20;1.10;;;;;;;8.58;100.00;100628.66;6186475;28;20039;-88
2023/01/06 07:56:40;;;;;;;3.10;1.02;;;;;;;8.56;100.00;100627.94;6186096;28;20042;-88
2023/01/06 07:59:42;;;;;;;2.38;1.10;;;;;;;8.55;100.00;100623.72;6170904;28;20182;-88
2023/01/06 08:02:43;;;;;;;2.25;1.00;;;;;;;8.56;100.00;100620.19;6189969;28;20050;-88
2023/01/06 08:05:45;;;;;;;1.60;1.10;;;;;;;8.72;100.00;100625.09;6187963;28;20124;-88
2023/01/06 08:08:47;;;;;;;3.60;1.25;;;;;;;8.70;100.00;100627.00;6190529;28;20064;-88
2023/01/06 08:11:48;;;;;;;1.38;1.00;;;;;;;8.68;100.00;100621.94;6184224;28;21060;-88
2023/01/06 08:14:51;;;;;;;0.93;0.73;;;;;;;8.72;100.00;100620.78;6187712;28;20646;-88
2023/01/06 08:17:54;;;;;;;3.72;0.95;;;;;;;8.75;100.00;100606.84;6190273;28;20495;-88
2023/01/06 08:21:06;;;;;;;3.90;1.30;;;;;;;8.82;100.00;100598.56;6179058;28;20404;-88
2023/01/06 08:24:07;;;;;;;3.05;1.20;;;;;;;8.94;100.00;100601.19;6171170;28;20042;-87
2023/01/06 08:27:09;;;;;;;2.72;1.08;;;;;;;8.99;100.00;100612.88;6187060;28;20113;-87
2023/01/06 08:30:11;;;;;;;2.15;1.10;;;;;;;9.01;100.00;100607.56;6188018;28;20038;-87
2023/01/06 08:33:13;;;;;;;1.10;1.00;;;;;;;9.03;100.00;100608.31;6188605;28;20058;-87
2023/01/06 08:36:17;;;;;;;2.38;1.00;;;;;;;9.13;100.00;100604.13;6188758;28;20415;-87
2023/01/06 08:39:19;;;;;;;2.47;1.25;;;;;;;9.15;100.00;100596.28;6171698;28;20046;-87
2023/01/06 08:42:21;;;;;;;2.67;1.00;;;;;;;9.22;100.00;100606.06;6187696;28;20090;-87
2023/01/06 08:45:23;;;;;;;2.03;1.30;;;;;;;9.19;100.00;100595.09;6188349;28;20316;-87
2023/01/06 08:48:25;;;;;;;0.95;0.80;;;;;;;9.22;100.00;100600.06;6187545;28;20385;-87
2023/01/06 08:51:27;;;;;;;2.03;1.10;;;;;;;9.22;100.00;100602.66;6189287;28;20420;-87
2023/01/06 08:54:29;;;;;;;2.30;1.00;;;;;;;9.24;100.00;100606.78;6188520;28;20053;-87
2023/01/06 08:57:32;;;;;;;1.35;0.88;;;;;;;9.41;100.00;100597.78;6187360;28;20043;-87
2023/01/06 09:00:35;;;;;;;2.53;1.20;;;;;;;9.55;100.00;100591.59;6185112;28;20489;-88
2023/01/06 09:03:37;;;;;;;3.28;1.25;;;;;;;9.64;100.00;100578.03;6170611;28;20488;-88
2023/01/06 09:06:42;;;;;;;2.97;0.80;;;;;;;9.75;100.00;100581.56;6181825;28;20038;-87
2023/01/06 09:09:44;;;;;;;2.53;1.98;;;;;;;9.77;100.00;100577.09;6176731;28;20043;-87
2023/01/06 09:12:46;;;;;;;4.15;0.90;;;;;;;9.84;100.00;100575.72;6183678;28;20046;-87
2023/01/06 09:15:48;;;;;;;1.40;0.82;;;;;;;9.73;100.00;100575.69;6179076;28;20038;-87
2023/01/06 09:18:50;;;;;;;0.88;0.80;;;;;;;9.69;100.00;100577.69;6183153;28;20050;-87
2023/01/06 09:21:52;;;;;;;3.30;1.10;;;;;;;9.67;100.00;100582.13;6187888;28;20038;-87
2023/01/06 09:24:54;;;;;;;1.40;0.88;;;;;;;9.76;100.00;100596.94;6189421;28;20189;-87
2023/01/06 09:27:57;;;;;;;2.33;0.80;;;;;;;9.86;100.00;100591.91;6189220;28;20412;-86
2023/01/06 09:30:59;;;;;;;2.00;1.00;;;;;;;9.88;100.00;100597.78;6168277;28;20046;-86
2023/01/06 09:34:01;;;;;;;1.23;0.90;;;;;;;9.81;100.00;100599.19;6184885;28;20046;-86
2023/01/06 09:37:03;;;;;;;1.70;1.15;;;;;;;9.70;100.00;100605.16;6188992;28;20050;-86
2023/01/06 09:40:05;;;;;;;2.38;0.80;;;;;;;9.67;100.00;100613.16;6169800;28;20077;-86
2023/01/06 09:43:41;;;;;;;1.77;0.90;;;;;;;9.68;100.00;100614.78;6188322;28;20038;-86
2023/01/06 09:46:47;;;;;;;0.70;0.70;;;;;;;9.74;100.00;100611.75;6183959;28;20042;-86
2023/01/06 09:49:56;;;;;;;2.25;1.13;;;;;;;9.89;100.00;100594.28;6184642;28;20327;-86
2023/01/06 09:53:02;;;;;;;2.08;1.05;;;;;;;9.99;100.00;100586.66;6186383;28;20042;-86
2023/01/06 09:56:14;;;;;;;3.00;0.93;;;;;;;9.98;100.00;100606.50;6183788;28;20519;-86
2023/01/06 09:59:27;;;;;;;1.50;0.90;;;;;;;9.95;100.00;100596.41;6184056;28;20057;-86
2023/01/06 10:02:36;;;;;;;2.25;0.98;;;;;;;9.96;100.00;100603.19;6186703;28;20540;-86
2023/01/06 10:06:00;;;;;;;1.80;1.10;;;;;;;9.95;100.00;100605.94;6180421;28;20039;-85
2023/01/06 10:09:21;;;;;;;1.95;1.20;;;;;;;9.96;100.00;100610.13;6186833;28;20062;-85
2023/01/06 10:12:41;;;;;;;2.27;1.00;;;;;;;9.90;100.00;100604.50;6173138;28;20216;-85
2023/01/06 10:16:14;;;;;;;2.30;1.10;;;;;;;9.92;100.00;100612.16;6185812;28;20061;-85
2023/01/06 10:19:34;;;;;;;1.30;0.93;;;;;;;9.95;100.00;100598.97;6184453;28;20132;-85
2023/01/06 10:23:17;;;;;;;2.22;1.30;;;;;;;10.03;100.00;100603.56;6185909;28;20046;-85
2023/01/06 10:26:29;;;;;;;2.53;1.20;;;;;;;10.21;100.00;100606.53;6087435;29;20122;-85
2023/01/06 10:29:36;;;;;;;1.67;1.27;;;;;;;10.31;100.00;100599.72;6094130;29;20155;-85
2023/01/06 10:32:38;;;;;;;1.30;1.10;;;;;;;10.35;100.00;100598.56;6087029;29;20040;-85
2023/01/06 10:35:43;;;;;;;1.23;1.10;;;;;;;10.35;100.00;100590.81;6085817;29;20691;-84
2023/01/06 10:38:49;;;;;;;3.15;1.30;;;;;;;10.26;100.00;100607.84;6095471;29;20056;-85
2023/01/06 10:45:48;;;;;;;1.25;1.23;;;;;;;10.12;100.00;100601.13;6088446;29;20048;-85
2023/01/06 10:48:50;;;;;;;1.35;1.25;;;;;;;10.14;100.00;100614.75;6087097;29;20056;-84
2023/01/06 10:51:57;;;;;;;1.63;1.30;;;;;;;10.04;100.00;100613.00;6086216;29;20059;-85
2023/01/06 10:55:04;;;;;;;1.10;1.10;;;;;;;10.06;100.00;100619.69;6087179;29;20044;-85
2023/01/06 10:58:36;;;;;;;1.23;1.23;;;;;;;9.98;100.00;100621.19;6079963;29;20044;-85
2023/01/06 11:01:56;;;;;;;1.92;1.48;;;;;;;10.01;100.00;100628.72;6086400;29;20048;-85
2023/01/06 11:05:00;;;;;;;1.70;1.60;;;;;;;9.92;100.00;100633.66;6180855;28;20049;-84
2023/01/06 11:08:07;;;;;;;2.30;1.50;;;;;;;9.84;100.00;100635.16;6189212;28;20061;-84
2023/01/06 11:11:12;;;;;;;1.85;1.58;;;;;;;9.80;100.00;100639.72;6184254;28;20184;-84
2023/01/06 11:14:32;;;;;;;1.88;1.70;;;;;;;10.03;100.00;100630.25;6177946;28;20182;-84
2023/01/06 11:17:35;;;;;;;1.70;1.60;;;;;;;10.19;100.00;100629.13;6183134;28;20192;-85
2023/01/06 11:20:37;;;;;;;1.92;1.80;;;;;;;10.29;100.00;100620.56;6165490;28;20077;-85
2023/01/06 11:23:40;;;;;;;2.83;1.90;;;;;;;10.47;100.00;100633.84;6184923;28;20057;-84
2023/01/06 11:26:50;;;;;;;2.05;1.88;;;;;;;10.61;100.00;100625.03;6165901;28;20042;-85
2023/01/06 11:29:52;;;;;;;2.17;1.67;;;;;;;10.59;100.00;100626.09;6187052;28;20046;-84
2023/01/06 11:32:54;;;;;;;2.42;2.03;;;;;;;10.53;100.00;100607.53;6189063;28;20493;-84
2023/01/06 11:35:57;;;;;;;3.30;1.85;;;;;;;10.43;100.00;100608.31;6188054;28;20047;-84
2023/01/06 11:39:05;;;;;;;2.10;2.00;;;;;;;10.37;100.00;100614.81;6190032;28;20046;-84
2023/01/06 11:42:12;;;;;;;1.75;1.65;;;;;;;10.38;100.00;100629.38;6185879;28;20038;-85
2023/01/06 11:45:37;;;;;;;1.90;1.80;;;;;;;10.44;100.00;100628.94;6172013;28;20441;-84
2023/01/06 11:48:47;;;;;;;2.17;1.73;;;;;;;10.53;100.00;100614.44;6179744;28;20054;-85
2023/01/06 11:51:49;;;;;;;1.67;1.58;;;;;;;10.59;100.00;100615.75;6186081;28;20166;-84
2023/01/06 11:55:05;;;;;;;1.67;1.58;;;;;;;10.73;100.00;100623.25;6188141;28;20038;-84
2023/01/06 11:58:20;;;;;;;1.90;1.70;;;;;;;10.71;100.00;100628.56;6183204;28;20042;-85
2023/01/06 12:01:43;;;;;;;1.67;1.58;;;;;;;10.71;100.00;100614.78;6177738;28;20062;-85
2023/01/06 12:04:50;;;;;;;2.08;1.42;;;;;;;10.62;100.00;100618.09;6186488;28;20809;-85
2023/01/06 12:07:56;;;;;;;1.40;1.30;;;;;;;10.63;100.00;100617.94;6185212;28;20519;-85
2023/01/06 12:11:04;;;;;;;1.95;1.77;;;;;;;10.57;100.00;100618.44;6189118;28;20042;-85
2023/01/06 12:14:22;;;;;;;1.90;1.80;;;;;;;10.55;100.00;100615.97;6185649;28;20039;-85
2023/01/06 12:17:49;;;;;;;2.17;1.85;;;;;;;10.54;100.00;100629.84;6186674;28;20081;-85
2023/01/06 12:20:54;;;;;;;2.40;1.90;;;;;;;10.45;100.00;100615.03;6187043;28;20126;-85
2023/01/06 12:23:59;;;;;;;2.45;1.70;;;;;;;10.49;100.00;100621.63;6165613;28;20416;-85
2023/01/06 12:27:04;;;;;;;2.00;1.90;;;;;;;10.65;100.00;100631.59;6176479;28;20633;-85
2023/01/06 12:30:15;;;;;;;2.55;2.00;;;;;;;10.74;100.00;100632.66;6183953;28;20626;-85
2023/01/06 12:33:32;;;;;;;1.70;1.60;;;;;;;10.68;100.00;100620.19;6169594;28;20050;-85
2023/01/06 12:36:42;;;;;;;1.98;1.70;;;;;;;10.62;100.00;100620.69;6189078;28;20125;-85
2023/01/06 12:39:58;;;;;;;1.50;1.40;;;;;;;10.71;100.00;100622.56;6187830;28;20165;-86
2023/01/06 12:43:21;;;;;;;2.33;1.83;;;;;;;10.90;100.00;100629.69;6176842;28;20547;-86
2023/01/06 12:46:31;;;;;;;2.05;1.60;;;;;;;11.10;100.00;100623.75;6188854;28;20057;-85
2023/01/06 12:49:47;;;;;;;1.95;1.80;;;;;;;11.25;100.00;100620.88;6190460;28;20157;-86
2023/01/06 12:53:17;;;;;;;2.15;1.77;;;;;;;11.39;100.00;100626.59;6195923;28;20476;-85
2023/01/06 12:56:41;;;;;;;1.70;1.60;;;;;;;11.46;100.00;100632.13;6167174;28;20420;-85
2023/01/06 13:00:16;;;;;;;2.25;1.50;;;;;;;11.25;100.00;100624.28;6160021;28;20397;-85
2023/01/06 13:03:30;;;;;;;2.95;1.38;;;;;;;11.04;100.00;100623.44;6160882;28;20054;-86
2023/01/06 13:07:06;;;;;;;1.73;1.50;;;;;;;10.84;100.00;100623.25;6187644;28;20073;-86
2023/01/06 13:10:30;;;;;;;1.98;1.50;;;;;;;10.71;100.00;100631.16;6172555;28;20058;-85
2023/01/06 13:13:37;;;;;;;1.55;1.42;;;;;;;10.64;100.00;100639.50;6182109;28;20069;-86
2023/01/06 13:17:06;;;;;;;2.00;1.55;;;;;;;10.60;100.00;100627.72;6185303;28;20089;-85
2023/01/06 13:20:20;;;;;;;1.90;1.30;;;;;;;10.54;100.00;100634.22;6159980;28;20159;-86
2023/01/06 13:23:46;;;;;;;2.30;1.05;;;;;;;10.49;100.00;100636.34;6181039;28;20501;-86
2023/01/06 13:27:17;;;;;;;1.08;0.82;;;;;;;10.47;100.00;100633.84;6167445;28;20056;-85
2023/01/06 13:30:56;;;;;;;2.40;0.95;;;;;;;10.44;100.00;100636.69;6152039;28;20049;-86
2023/01/06 13:34:35;;;;;;;1.55;1.10;;;;;;;10.33;100.00;100634.09;6185496;28;20173;-86
2023/01/06 13:38:11;;;;;;;2.30;0.85;;;;;;;10.30;100.00;100649.84;6175135;28;20046;-86
2023/01/06 13:41:24;;;;;;;2.47;0.90;;;;;;;10.35;100.00;100656.31;6159850;28;20054;-86
2023/01/06 13:44:29;;;;;;;3.35;1.00;;;;;;;10.33;100.00;100660.81;6178406;28;20535;-85
2023/01/06 13:47:31;;;;;;;2.65;0.70;;;;;;;10.22;100.00;100652.97;6183028;28;20492;-86
2023/01/06 13:50:35;;;;;;;1.08;0.70;;;;;;;10.15;100.00;100651.78;6158024;28;20043;-85
2023/01/06 13:53:40;;;;;;;3.63;1.08;;;;;;;10.12;100.00;100675.31;6176317;28;20461;-85
2023/01/06 13:56:42;;;;;;;1.05;0.73;;;;;;;10.13;100.00;100657.06;6186694;28;20050;-86
2023/01/06 14:00:02;;;;;;;1.55;0.95;;;;;;;10.13;100.00;100656.25;6180925;28;20416;-85
2023/01/06 14:03:19;;;;;;;2.20;0.88;;;;;;;10.22;100.00;100659.94;6186915;28;20058;-89
2023/01/06 14:06:21;;;;;;;2.80;0.98;;;;;;;10.24;100.00;100658.88;6185974;28;20112;-85
2023/01/06 14:09:23;;;;;;;1.60;0.90;;;;;;;10.22;100.00;100680.63;6173964;28;20090;-85
2023/01/06 14:12:26;;;;;;;1.42;0.88;;;;;;;10.28;100.00;100670.66;6180917;28;20054;-85
2023/01/06 14:15:31;;;;;;;2.55;0.80;;;;;;;10.26;100.00;100671.66;6181734;28;20049;-86
2023/01/06 14:18:35;;;;;;;2.83;1.17;;;;;;;10.22;100.00;100667.69;6172039;28;20455;-85
2023/01/06 14:21:37;;;;;;;1.65;1.08;;;;;;;10.16;100.00;100671.56;6175125;28;20468;-85
2023/01/06 14:24:42;;;;;;;1.25;1.00;;;;;;;10.10;100.00;100667.66;6172777;28;20043;-85
2023/01/06 14:27:47;;;;;;;2.00;1.00;;;;;;;10.05;100.00;100674.13;6165291;28;20185;-85
2023/01/06 14:31:10;;;;;;;2.75;1.10;;;;;;;9.92;100.00;100700.06;6173363;28;20039;-85
2023/01/06 14:34:15;;;;;;;1.83;0.90;;;;;;;9.79;100.00;100688.94;6171629;28;20042;-85
2023/01/06 14:37:22;;;;;;;1.85;1.05;;;;;;;9.73;100.00;100697.16;6154879;28;20075;-85
2023/01/06 14:40:44;;;;;;;1.25;0.90;;;;;;;9.62;100.00;100692.78;6170390;28;20043;-85